Time;durP1;ratioP1;P1;durP2;ratioP2;P2;SDS_P1;SDS_P2;PMS_P1;PMS_P2;Temp;Humidity;BMP_temperature;BMP_pressure;BME280_temperature;BME280_humidity;BME280_pressure;Samples;Min_cycle;Max_cycle;Signal;HPM_P1;HPM_P2
2023/06/18 00:00:36;;;;;;;13.98;8.70;;;;;;;20.61;63.45;101496.41;6099699;19;20010;-71
2023/06/18 00:02:42;;;;;;;14.15;10.20;;;;;;;20.58;63.55;101491.28;6097633;19;20014;-71
2023/06/18 00:04:48;;;;;;;12.82;9.02;;;;;;;20.55;63.14;101500.38;6102430;19;20015;-71
2023/06/18 00:06:53;;;;;;;15.50;9.10;;;;;;;20.50;63.37;101497.16;6100899;19;20681;-73
2023/06/18 00:08:58;;;;;;;14.63;8.80;;;;;;;20.52;62.78;101494.38;6099341;19;20107;-71
2023/06/18 00:11:03;;;;;;;16.63;9.32;;;;;;;20.54;62.80;101490.66;6100093;19;20023;-71
2023/06/18 00:13:11;;;;;;;13.68;8.85;;;;;;;20.53;62.67;101488.91;6101165;19;20094;-71
2023/06/18 00:15:16;;;;;;;13.38;8.50;;;;;;;20.51;62.49;101498.88;6100182;19;20013;-71
2023/06/18 00:17:23;;;;;;;13.70;8.73;;;;;;;20.47;63.11;101496.53;6097902;19;20401;-72
2023/06/18 00:19:28;;;;;;;13.57;9.30;;;;;;;20.47;62.69;101494.72;6099464;19;20009;-71
2023/06/18 00:21:33;;;;;;;12.05;8.32;;;;;;;20.42;62.29;101485.31;6100222;19;20515;-72
2023/06/18 00:23:38;;;;;;;11.55;8.38;;;;;;;20.41;62.60;101483.63;6098503;19;20130;-71
2023/06/18 00:25:45;;;;;;;10.68;7.85;;;;;;;20.39;62.40;101492.59;6098762;19;20006;-71
2023/06/18 00:27:50;;;;;;;12.55;8.00;;;;;;;20.36;62.37;101484.81;6095572;19;20648;-72
2023/06/18 00:29:59;;;;;;;13.88;8.68;;;;;;;20.30;62.17;101487.91;6094991;19;20387;-72
2023/06/18 00:32:04;;;;;;;13.05;8.52;;;;;;;20.30;61.98;101485.25;6098650;19;20351;-71
2023/06/18 00:34:14;;;;;;;14.75;8.20;;;;;;;20.29;62.01;101482.69;6097175;19;20537;-72
2023/06/18 00:36:26;;;;;;;12.80;8.20;;;;;;;20.23;62.15;101483.13;6098969;19;20601;-70
2023/06/18 00:38:33;;;;;;;11.85;8.95;;;;;;;20.20;61.93;101478.00;6098252;19;20723;-71
2023/06/18 00:40:38;;;;;;;13.48;9.07;;;;;;;20.17;61.95;101485.25;6101761;19;20566;-72
2023/06/18 00:42:44;;;;;;;12.88;7.75;;;;;;;20.16;62.23;101480.88;6097476;19;21406;-71
2023/06/18 00:44:50;;;;;;;11.60;7.95;;;;;;;20.12;61.83;101479.41;6099559;19;20030;-71
2023/06/18 00:46:59;;;;;;;11.43;7.88;;;;;;;20.11;61.74;101488.34;6097957;19;20106;-72
2023/06/18 00:49:08;;;;;;;13.73;8.95;;;;;;;20.07;62.49;101486.88;6100437;19;20348;-72
2023/06/18 00:51:13;;;;;;;14.18;8.38;;;;;;;20.09;61.62;101476.94;6103455;19;20490;-73
2023/06/18 00:53:20;;;;;;;12.50;8.10;;;;;;;20.10;61.70;101475.13;6098514;19;20048;-72
2023/06/18 00:55:26;;;;;;;12.38;7.90;;;;;;;20.10;61.39;101470.63;6100842;19;20364;-72
2023/06/18 00:57:32;;;;;;;11.73;8.50;;;;;;;20.07;61.80;101465.53;6102650;19;20010;-73
2023/06/18 00:59:38;;;;;;;11.75;7.70;;;;;;;20.05;61.63;101469.25;6099535;19;20527;-71
2023/06/18 01:01:44;;;;;;;12.50;8.18;;;;;;;20.06;61.03;101466.47;6103051;19;20069;-70
2023/06/18 01:03:56;;;;;;;14.13;8.32;;;;;;;20.07;60.72;101462.00;6103469;19;20047;-72
2023/06/18 01:06:08;;;;;;;13.00;7.80;;;;;;;20.06;60.36;101466.47;6101850;19;20037;-71
2023/06/18 01:08:17;;;;;;;10.90;7.72;;;;;;;20.07;60.21;101462.84;6102332;19;20345;-72
2023/06/18 01:10:29;;;;;;;13.18;7.97;;;;;;;20.08;60.13;101455.69;6098556;19;20007;-71
2023/06/18 01:12:34;;;;;;;11.40;7.20;;;;;;;20.04;60.28;101454.22;6095884;19;20498;-71
2023/06/18 01:14:50;;;;;;;11.52;7.50;;;;;;;20.02;60.03;101449.00;6099748;19;20504;-71
2023/06/18 01:16:59;;;;;;;12.90;7.32;;;;;;;20.01;59.72;101457.97;6098923;19;20023;-70
2023/06/18 01:19:09;;;;;;;13.60;8.18;;;;;;;19.95;60.25;101453.03;6103749;19;20009;-72
2023/06/18 01:21:18;;;;;;;15.10;8.65;;;;;;;19.95;59.86;101447.69;6102711;19;20007;-72
2023/06/18 01:23:29;;;;;;;15.98;9.00;;;;;;;19.96;59.93;101449.44;6101603;19;20007;-72
2023/06/18 01:25:37;;;;;;;12.95;7.88;;;;;;;19.94;60.12;101448.69;6101955;19;20010;-72
2023/06/18 01:27:46;;;;;;;11.25;7.47;;;;;;;19.85;60.31;101446.63;6096529;19;20010;-75
2023/06/18 01:29:54;;;;;;;13.25;7.53;;;;;;;19.79;60.72;101452.41;6101369;19;20381;-77
2023/06/18 01:31:59;;;;;;;11.02;7.70;;;;;;;19.77;60.58;101441.84;6099789;19;20006;-76
2023/06/18 01:34:07;;;;;;;13.63;8.30;;;;;;;19.74;60.76;101442.91;6105000;19;20103;-76
2023/06/18 01:36:15;;;;;;;13.02;8.27;;;;;;;19.72;61.09;101443.97;6098321;19;20014;-75
2023/06/18 01:38:34;;;;;;;10.95;7.63;;;;;;;19.64;60.79;101439.16;6100415;19;20031;-76
2023/06/18 01:40:48;;;;;;;11.73;7.72;;;;;;;19.62;61.11;101435.75;6100703;19;20002;-75
2023/06/18 01:42:58;;;;;;;11.23;7.45;;;;;;;19.59;61.38;101441.28;6099068;19;20011;-76
2023/06/18 01:45:11;;;;;;;11.73;8.07;;;;;;;19.53;60.98;101439.03;6099204;19;20035;-75
2023/06/18 01:47:18;;;;;;;11.13;8.15;;;;;;;19.51;61.08;101433.81;6101138;19;20014;-75
2023/06/18 01:49:27;;;;;;;11.45;7.75;;;;;;;19.45;61.12;101439.53;6100252;19;20011;-75
2023/06/18 01:51:35;;;;;;;11.23;7.63;;;;;;;19.39;61.69;101428.47;6097659;19;20010;-76
2023/06/18 01:53:40;;;;;;;12.82;7.80;;;;;;;19.41;61.74;101432.75;6097820;19;20494;-76
2023/06/18 01:55:50;;;;;;;11.07;7.75;;;;;;;19.42;61.47;101428.25;6096686;19;20009;-76
2023/06/18 01:57:55;;;;;;;10.80;7.25;;;;;;;19.36;61.71;101428.69;6099217;19;20007;-75
2023/06/18 02:00:04;;;;;;;12.13;7.55;;;;;;;19.33;61.90;101423.56;6093328;19;20014;-75
2023/06/18 02:02:09;;;;;;;13.32;8.10;;;;;;;19.29;62.08;101429.09;6095583;19;20510;-77
2023/06/18 02:04:14;;;;;;;12.40;8.00;;;;;;;19.24;62.29;101422.34;6095820;19;20498;-76
2023/06/18 02:06:30;;;;;;;12.10;7.93;;;;;;;19.29;62.18;101412.25;6096517;19;20098;-75
2023/06/18 02:08:35;;;;;;;13.45;8.00;;;;;;;19.25;62.26;101411.59;6094793;19;20705;-77
2023/06/18 02:10:40;;;;;;;14.68;8.05;;;;;;;19.20;62.37;101405.75;6094246;19;20007;-75
2023/06/18 02:12:48;;;;;;;12.25;7.82;;;;;;;19.19;62.58;101416.47;6095979;19;20018;-76
2023/06/18 02:14:54;;;;;;;11.88;7.50;;;;;;;19.18;62.64;101410.31;6097676;19;20010;-76
2023/06/18 02:16:59;;;;;;;11.55;7.97;;;;;;;19.17;62.72;101413.06;6097759;19;20025;-76
2023/06/18 02:19:06;;;;;;;13.25;7.88;;;;;;;19.15;62.83;101415.00;6097291;19;20006;-77
2023/06/18 02:21:11;;;;;;;14.27;7.72;;;;;;;19.12;62.71;101405.41;6095221;19;20518;-75
2023/06/18 02:23:21;;;;;;;11.10;7.78;;;;;;;19.13;63.37;101409.75;6094075;19;20143;-76
2023/06/18 02:25:32;;;;;;;11.90;7.88;;;;;;;19.08;63.09;101406.56;6099853;19;20011;-75
2023/06/18 02:27:37;;;;;;;12.35;8.43;;;;;;;19.11;62.74;101408.16;6094425;19;20010;-76
2023/06/18 02:29:45;;;;;;;15.05;7.85;;;;;;;19.06;63.39;101406.69;6098535;19;20010;-76
2023/06/18 02:31:51;;;;;;;13.35;8.70;;;;;;;19.08;63.21;101407.41;6102030;19;20019;-77
2023/06/18 02:33:56;;;;;;;12.50;7.88;;;;;;;19.06;63.49;101397.81;6097872;19;20007;-76
2023/06/18 02:36:03;;;;;;;12.52;8.38;;;;;;;19.03;63.74;101400.69;6098011;19;20597;-76
2023/06/18 02:38:08;;;;;;;13.18;8.02;;;;;;;19.00;63.72;101407.06;6100045;19;20002;-75
2023/06/18 02:40:18;;;;;;;12.65;8.55;;;;;;;18.99;64.19;101400.03;6101200;19;20017;-75
2023/06/18 02:42:24;;;;;;;13.02;8.00;;;;;;;18.95;64.25;101405.66;6099276;19;20038;-75
2023/06/18 02:44:31;;;;;;;13.82;7.97;;;;;;;18.94;64.51;101407.50;6099582;19;20336;-76
2023/06/18 02:46:36;;;;;;;13.35;8.73;;;;;;;18.92;64.50;101403.22;6098887;19;20020;-75
2023/06/18 02:48:41;;;;;;;14.07;9.30;;;;;;;18.90;64.67;101399.78;6100145;19;20018;-75
2023/06/18 02:50:46;;;;;;;13.45;8.45;;;;;;;18.87;64.93;101408.84;6099242;19;20039;-77
2023/06/18 02:52:54;;;;;;;13.63;8.40;;;;;;;18.85;64.89;101400.97;6097594;19;20142;-75
2023/06/18 02:54:59;;;;;;;11.77;8.38;;;;;;;18.83;65.15;101405.53;6103041;19;20006;-75
2023/06/18 02:57:07;;;;;;;14.38;8.85;;;;;;;18.78;65.23;101402.31;6102135;19;20020;-77
2023/06/18 02:59:12;;;;;;;14.68;9.05;;;;;;;18.76;65.45;101404.22;6103268;19;20132;-77
2023/06/18 03:01:19;;;;;;;12.70;9.05;;;;;;;18.74;65.29;101400.78;6097541;19;20412;-75
2023/06/18 03:03:25;;;;;;;17.55;8.68;;;;;;;18.71;65.58;101406.31;6098657;19;20013;-76
2023/06/18 03:05:30;;;;;;;14.23;9.93;;;;;;;18.67;66.31;101402.16;6099725;19;20404;-78
2023/06/18 03:07:36;;;;;;;16.35;9.98;;;;;;;18.61;66.37;101406.03;6096543;19;20006;-75
2023/06/18 03:09:41;;;;;;;17.00;9.43;;;;;;;18.59;66.38;101407.97;6093078;19;20549;-71
2023/06/18 03:11:46;;;;;;;14.48;9.60;;;;;;;18.57;66.67;101406.38;6096842;19;20031;-72
2023/06/18 03:13:54;;;;;;;16.17;10.48;;;;;;;18.54;66.98;101409.22;6091155;19;20010;-71
2023/06/18 03:16:01;;;;;;;14.27;9.52;;;;;;;18.52;66.99;101411.13;6090451;19;20002;-72
2023/06/18 03:18:07;;;;;;;14.35;10.48;;;;;;;18.49;67.23;101400.69;6094412;19;20014;-70
2023/06/18 03:20:15;;;;;;;14.88;10.02;;;;;;;18.48;67.25;101410.47;6091712;19;20415;-72
2023/06/18 03:22:21;;;;;;;16.25;10.18;;;;;;;18.45;67.75;101409.81;6091967;19;20034;-71
2023/06/18 03:24:27;;;;;;;12.80;8.80;;;;;;;18.42;67.86;101413.53;6093919;19;20018;-71
2023/06/18 03:26:36;;;;;;;18.23;11.18;;;;;;;18.39;67.83;101411.06;6091868;19;20088;-71
2023/06/18 03:28:41;;;;;;;13.48;10.15;;;;;;;18.39;67.80;101408.41;6092438;19;20050;-72
2023/06/18 03:30:54;;;;;;;17.23;11.13;;;;;;;18.38;68.17;101399.56;6091826;19;19999;-73
2023/06/18 03:33:01;;;;;;;14.52;9.77;;;;;;;18.39;68.25;101403.09;6069508;19;20027;-71
2023/06/18 03:35:07;;;;;;;14.77;10.10;;;;;;;18.39;68.63;101411.91;6091830;19;20003;-71
2023/06/18 03:37:16;;;;;;;16.00;10.63;;;;;;;18.38;68.59;101396.06;6092470;19;20011;-71
2023/06/18 03:39:26;;;;;;;16.75;10.40;;;;;;;18.37;68.89;101408.50;6091700;19;20507;-72
2023/06/18 03:41:32;;;;;;;17.48;10.80;;;;;;;18.35;68.72;101406.88;6091798;19;20006;-72
2023/06/18 03:43:37;;;;;;;18.23;10.55;;;;;;;18.34;68.93;101408.69;6090094;19;19999;-71
2023/06/18 03:45:42;;;;;;;15.07;10.32;;;;;;;18.34;69.17;101402.53;6094706;19;20329;-72
2023/06/18 03:47:50;;;;;;;14.85;9.88;;;;;;;18.34;68.74;101410.50;6091365;19;20035;-73
2023/06/18 03:49:56;;;;;;;18.08;10.35;;;;;;;18.34;69.21;101408.69;6096644;19;20010;-72
2023/06/18 03:52:02;;;;;;;14.85;9.52;;;;;;;18.36;69.48;101405.94;6093954;19;20362;-72
2023/06/18 03:54:07;;;;;;;15.52;10.07;;;;;;;18.38;69.01;101407.56;6090359;19;20011;-72
2023/06/18 03:56:12;;;;;;;17.02;10.60;;;;;;;18.40;69.12;101410.97;6092375;19;20007;-73
2023/06/18 03:58:17;;;;;;;15.70;9.88;;;;;;;18.40;69.11;101410.09;6088811;19;20023;-72
2023/06/18 04:00:23;;;;;;;15.25;10.00;;;;;;;18.45;69.36;101405.34;6089795;19;20018;-72
2023/06/18 04:02:29;;;;;;;15.48;10.52;;;;;;;18.48;69.07;101402.47;6090298;19;20308;-72
2023/06/18 04:04:37;;;;;;;17.65;11.32;;;;;;;18.51;69.01;101409.41;6090874;19;20006;-72
2023/06/18 04:06:43;;;;;;;19.35;10.88;;;;;;;18.53;68.71;101404.84;6092519;19;21007;-70
2023/06/18 04:08:49;;;;;;;15.98;11.10;;;;;;;18.54;68.75;101404.75;6090930;19;20022;-72
2023/06/18 04:10:55;;;;;;;17.73;11.10;;;;;;;18.55;68.77;101408.28;6091106;19;20014;-77
2023/06/18 04:13:02;;;;;;;16.42;10.60;;;;;;;18.55;69.41;101406.47;6091745;19;20025;-78
2023/06/18 04:15:09;;;;;;;16.98;10.38;;;;;;;18.56;69.51;101412.63;6090212;19;20010;-76
2023/06/18 04:17:14;;;;;;;17.65;11.68;;;;;;;18.58;69.37;101418.72;6089473;19;20086;-76
2023/06/18 04:19:22;;;;;;;32.55;11.57;;;;;;;18.59;69.37;101420.44;6091852;19;20332;-77
2023/06/18 04:21:34;;;;;;;17.85;10.85;;;;;;;18.68;69.12;101414.50;6092185;19;20623;-76
2023/06/18 04:23:39;;;;;;;19.25;11.20;;;;;;;18.69;69.19;101415.34;6093035;19;20582;-75
2023/06/18 04:25:47;;;;;;;18.30;11.50;;;;;;;18.69;69.44;101407.34;6086872;19;20090;-77
2023/06/18 04:27:55;;;;;;;20.75;12.10;;;;;;;18.68;69.58;101409.16;6090555;19;20020;-76
2023/06/18 04:30:02;;;;;;;18.35;11.68;;;;;;;18.69;69.47;101407.34;6089293;19;20070;-77
2023/06/18 04:32:09;;;;;;;17.70;11.40;;;;;;;18.78;69.11;101414.78;6093903;19;20011;-75
2023/06/18 04:34:14;;;;;;;19.60;12.30;;;;;;;18.78;69.38;101418.31;6098528;19;20018;-77
2023/06/18 04:36:23;;;;;;;19.73;12.07;;;;;;;18.80;69.57;101419.06;6101443;19;20020;-75
2023/06/18 04:38:34;;;;;;;17.80;11.02;;;;;;;18.85;69.20;101419.63;6096776;19;20010;-75
2023/06/18 04:40:39;;;;;;;18.05;11.57;;;;;;;18.89;69.45;101419.41;6101618;19;20034;-77
2023/06/18 04:42:44;;;;;;;18.60;11.88;;;;;;;18.93;69.47;101420.88;6101776;19;20467;-77
2023/06/18 04:44:52;;;;;;;18.25;10.57;;;;;;;18.99;69.24;101423.16;6101816;19;20006;-76
2023/06/18 04:46:57;;;;;;;20.70;12.27;;;;;;;19.02;69.46;101430.94;6103810;19;20379;-76
2023/06/18 04:49:03;;;;;;;20.63;11.35;;;;;;;19.17;68.93;101427.25;6104023;19;20006;-76
2023/06/18 04:51:08;;;;;;;17.80;10.65;;;;;;;19.27;68.24;101428.34;6102258;19;20006;-75
2023/06/18 04:53:13;;;;;;;19.13;11.80;;;;;;;19.36;68.14;101431.34;6103689;19;20027;-75
2023/06/18 04:55:23;;;;;;;21.40;11.55;;;;;;;19.57;67.44;101429.03;6104864;19;20006;-76
2023/06/18 04:57:31;;;;;;;18.75;11.15;;;;;;;19.69;67.45;101425.53;6104880;19;20007;-76
2023/06/18 04:59:37;;;;;;;17.65;11.90;;;;;;;19.72;67.45;101423.50;6102733;19;20015;-75
2023/06/18 05:01:44;;;;;;;20.60;12.95;;;;;;;19.80;66.80;101427.44;6105492;19;20584;-75
2023/06/18 05:03:49;;;;;;;20.00;11.90;;;;;;;19.89;66.90;101422.31;6104030;19;20026;-76
2023/06/18 05:05:54;;;;;;;20.15;12.88;;;;;;;19.99;66.76;101424.34;6104274;19;20137;-75
2023/06/18 05:07:59;;;;;;;20.08;12.63;;;;;;;19.94;66.28;101422.84;6099492;19;20738;-74
2023/06/18 05:10:05;;;;;;;19.20;12.73;;;;;;;20.01;66.12;101414.41;6100525;19;20085;-75
2023/06/18 05:12:13;;;;;;;21.75;12.60;;;;;;;20.10;66.12;101417.28;6095983;19;20017;-71
2023/06/18 05:14:22;;;;;;;21.23;13.10;;;;;;;20.09;66.32;101420.03;6097726;19;20006;-71
2023/06/18 05:16:28;;;;;;;20.27;12.18;;;;;;;20.14;66.00;101410.78;6096037;19;20021;-71
2023/06/18 05:18:33;;;;;;;22.65;13.13;;;;;;;20.21;65.66;101415.66;6101492;19;20003;-72
2023/06/18 05:20:38;;;;;;;21.95;13.32;;;;;;;20.18;65.78;101416.72;6098371;19;20020;-72
2023/06/18 05:22:43;;;;;;;20.13;12.98;;;;;;;20.25;65.92;101422.47;6093692;19;20039;-74
2023/06/18 05:24:49;;;;;;;22.38;13.73;;;;;;;20.31;65.44;101419.38;6098457;19;20038;-73
2023/06/18 05:26:57;;;;;;;22.48;13.18;;;;;;;20.45;64.75;101408.53;6099688;19;20011;-71
2023/06/18 05:29:06;;;;;;;22.17;14.20;;;;;;;20.57;64.52;101418.34;6099374;19;20037;-70
2023/06/18 05:31:11;;;;;;;24.40;16.13;;;;;;;20.64;64.62;101420.56;6094857;19;20018;-71
2023/06/18 05:33:16;;;;;;;21.15;12.95;;;;;;;20.80;63.44;101421.13;6096520;19;20018;-72
2023/06/18 05:35:26;;;;;;;20.75;13.13;;;;;;;20.77;63.80;101429.38;6100123;19;20055;-72
2023/06/18 05:37:31;;;;;;;21.65;12.98;;;;;;;20.78;63.39;101429.25;6099022;19;20503;-71
2023/06/18 05:39:37;;;;;;;20.15;12.68;;;;;;;20.76;63.68;101433.03;6097835;19;20449;-72
2023/06/18 05:41:43;;;;;;;23.17;13.60;;;;;;;20.72;63.61;101434.19;6097767;19;20035;-71
2023/06/18 05:43:52;;;;;;;20.83;13.63;;;;;;;20.74;63.31;101430.44;6096215;19;20014;-72
2023/06/18 05:46:02;;;;;;;22.00;13.70;;;;;;;20.70;63.56;101444.16;6097558;19;20056;-72
2023/06/18 05:48:09;;;;;;;22.00;13.93;;;;;;;20.68;64.30;101459.44;6099145;19;20009;-71
2023/06/18 05:50:15;;;;;;;23.52;13.73;;;;;;;20.67;63.14;101498.66;6094807;19;20010;-73
2023/06/18 05:52:28;;;;;;;20.38;12.70;;;;;;;20.70;61.94;101481.56;6095132;19;20043;-71
2023/06/18 05:54:33;;;;;;;;;;;;;;;20.70;62.16;101454.84;6097298;19;20333;-71
2023/06/18 05:56:38;;;;;;;22.15;13.45;;;;;;;20.76;61.92;101446.38;6095657;19;19914;-71
2023/06/18 05:58:43;;;;;;;21.27;12.43;;;;;;;20.79;62.11;101470.19;6098210;19;20400;-72
2023/06/18 06:00:49;;;;;;;19.38;12.18;;;;;;;20.80;61.41;101478.09;6096846;19;20489;-72
2023/06/18 06:03:00;;;;;;;17.70;11.43;;;;;;;20.81;61.40;101457.56;6093879;19;20063;-72
2023/06/18 06:05:05;;;;;;;26.75;13.70;;;;;;;20.83;61.00;101463.66;6097611;19;20021;-72
2023/06/18 06:07:10;;;;;;;21.48;11.77;;;;;;;20.89;60.15;101460.53;6094087;19;20856;-72
2023/06/18 06:09:15;;;;;;;20.58;12.85;;;;;;;20.95;59.47;101459.22;6095995;19;20027;-71
2023/06/18 06:11:28;;;;;;;21.75;11.90;;;;;;;20.99;59.40;101468.72;6092833;19;20014;-72
2023/06/18 06:13:33;;;;;;;19.90;11.98;;;;;;;21.03;59.65;101457.66;6097495;19;20036;-72
2023/06/18 06:15:38;;;;;;;19.52;12.70;;;;;;;21.16;59.52;101443.38;6094391;19;20014;-76
2023/06/18 06:17:43;;;;;;;22.55;13.32;;;;;;;21.19;58.23;101435.97;6098668;19;20062;-75
2023/06/18 06:19:52;;;;;;;22.00;12.43;;;;;;;21.33;57.92;101445.66;6096428;19;20464;-76
2023/06/18 06:21:59;;;;;;;18.63;12.18;;;;;;;21.43;57.08;101448.47;6096961;19;20439;-75
2023/06/18 06:24:05;;;;;;;21.10;12.77;;;;;;;21.47;56.60;101440.09;6096178;19;20391;-75
2023/06/18 06:26:10;;;;;;;20.00;11.55;;;;;;;21.50;56.07;101441.69;6093837;19;20109;-75
2023/06/18 06:28:18;;;;;;;18.20;10.88;;;;;;;21.66;55.61;101436.00;6097109;19;20968;-76
2023/06/18 06:30:23;;;;;;;19.33;11.65;;;;;;;21.78;55.58;101440.41;6094940;19;20003;-75
2023/06/18 06:32:29;;;;;;;18.52;11.90;;;;;;;21.98;54.60;101443.34;6097759;19;20027;-75
2023/06/18 06:34:35;;;;;;;19.77;11.85;;;;;;;22.05;53.54;101445.41;6095958;19;20017;-75
2023/06/18 06:36:43;;;;;;;22.83;11.25;;;;;;;22.29;53.43;101453.31;6094317;19;20006;-75
2023/06/18 06:38:50;;;;;;;20.27;11.63;;;;;;;22.24;52.53;101450.16;6095960;19;20010;-76
2023/06/18 06:40:56;;;;;;;21.30;12.05;;;;;;;22.28;53.52;101457.00;6097371;19;20537;-76
2023/06/18 06:43:03;;;;;;;18.80;12.05;;;;;;;22.34;53.31;101451.13;6096351;19;20336;-76
2023/06/18 06:45:09;;;;;;;19.23;11.88;;;;;;;22.31;53.30;101455.91;6099495;19;20014;-75
2023/06/18 06:47:15;;;;;;;18.10;11.82;;;;;;;22.37;52.98;101451.88;6098557;19;20007;-75
2023/06/18 06:49:20;;;;;;;18.73;12.80;;;;;;;22.19;52.47;101460.38;6097531;19;20531;-76
2023/06/18 06:51:26;;;;;;;17.33;11.20;;;;;;;22.34;51.95;101448.47;6096486;19;20593;-75
2023/06/18 06:53:34;;;;;;;18.42;11.82;;;;;;;22.52;52.57;101453.31;6097996;19;20002;-75
2023/06/18 06:55:39;;;;;;;18.52;12.30;;;;;;;22.61;52.31;101449.88;6096397;19;20023;-75
2023/06/18 06:57:45;;;;;;;20.35;12.13;;;;;;;22.74;51.46;101445.19;6097726;19;20010;-76
2023/06/18 06:59:50;;;;;;;19.02;11.35;;;;;;;22.83;52.01;101453.44;6098377;19;20006;-72
2023/06/18 07:01:56;;;;;;;19.10;12.32;;;;;;;22.86;51.51;101454.06;6094419;19;20025;-71
2023/06/18 07:04:03;;;;;;;17.85;11.88;;;;;;;22.69;51.15;101452.75;6093696;19;20593;-72
2023/06/18 07:06:08;;;;;;;25.17;16.42;;;;;;;22.73;50.67;101461.41;6096195;19;20013;-71
2023/06/18 07:08:14;;;;;;;23.15;13.88;;;;;;;22.88;51.58;101459.28;6093702;19;20010;-72
2023/06/18 07:10:22;;;;;;;20.55;12.27;;;;;;;22.81;51.40;101452.75;6099132;19;21068;-72
2023/06/18 07:12:29;;;;;;;19.60;12.70;;;;;;;22.90;51.34;101460.84;6099851;19;20074;-72
2023/06/18 07:14:34;;;;;;;17.85;11.30;;;;;;;23.00;50.66;101456.47;6101686;19;20372;-75
2023/06/18 07:16:39;;;;;;;18.27;12.20;;;;;;;23.02;50.60;101461.72;6095468;19;20010;-75
2023/06/18 07:18:45;;;;;;;18.55;12.52;;;;;;;23.01;50.43;101462.69;6101136;19;20038;-75
2023/06/18 07:20:51;;;;;;;21.38;13.00;;;;;;;22.87;48.95;101458.44;6097669;19;20011;-75
2023/06/18 07:22:56;;;;;;;19.98;14.13;;;;;;;22.86;49.68;101462.09;6101071;19;20039;-76
2023/06/18 07:25:01;;;;;;;20.25;13.77;;;;;;;22.96;49.95;101464.84;6102460;19;20021;-75
2023/06/18 07:27:09;;;;;;;18.73;13.20;;;;;;;23.03;48.18;101473.28;6100526;19;20018;-74
2023/06/18 07:29:14;;;;;;;20.35;13.98;;;;;;;23.08;49.67;101469.25;6101740;19;20018;-76
2023/06/18 07:31:22;;;;;;;20.90;13.10;;;;;;;23.13;49.88;101472.38;6099766;19;20027;-75
2023/06/18 07:33:31;;;;;;;17.67;12.55;;;;;;;23.27;49.81;101470.38;6100937;19;20396;-75
2023/06/18 07:35:36;;;;;;;19.13;12.07;;;;;;;23.36;49.07;101472.31;6100185;19;20031;-75
2023/06/18 07:37:41;;;;;;;17.77;12.00;;;;;;;23.39;47.66;101472.88;6100481;19;20015;-75
2023/06/18 07:39:46;;;;;;;21.15;13.48;;;;;;;23.31;47.87;101470.00;6100730;19;20344;-72
2023/06/18 07:41:53;;;;;;;22.15;14.68;;;;;;;23.03;47.93;101468.78;6099447;19;20066;-72
2023/06/18 07:44:01;;;;;;;23.30;13.70;;;;;;;23.16;49.05;101473.97;6098081;19;20014;-71
2023/06/18 07:46:06;;;;;;;21.77;14.40;;;;;;;23.41;48.37;101468.25;6094576;19;20039;-71
2023/06/18 07:48:11;;;;;;;21.17;13.70;;;;;;;23.54;48.29;101476.09;6095085;19;20010;-72
2023/06/18 07:50:16;;;;;;;21.48;14.38;;;;;;;23.41;48.53;101478.13;6098665;19;20126;-71
2023/06/18 07:52:23;;;;;;;21.48;14.60;;;;;;;23.57;48.58;101478.50;6094195;19;20505;-73
2023/06/18 07:54:29;;;;;;;18.33;13.00;;;;;;;23.66;49.31;101479.56;6096750;19;20424;-72
2023/06/18 07:56:34;;;;;;;21.33;13.73;;;;;;;23.68;48.18;101474.91;6095271;19;20039;-71
2023/06/18 07:58:39;;;;;;;20.15;13.98;;;;;;;23.75;47.85;101472.56;6093728;19;20592;-72
2023/06/18 08:00:47;;;;;;;24.25;13.57;;;;;;;23.73;48.66;101472.72;6095569;19;20476;-72
2023/06/18 08:02:54;;;;;;;22.80;14.57;;;;;;;23.38;48.32;101468.50;6092087;19;20561;-71
2023/06/18 08:05:01;;;;;;;23.58;14.73;;;;;;;23.63;47.64;101467.25;6093670;19;20098;-72
2023/06/18 08:07:07;;;;;;;18.92;14.13;;;;;;;23.74;47.86;101465.50;6095821;19;22318;-72
2023/06/18 08:09:12;;;;;;;22.45;14.05;;;;;;;23.87;47.42;101461.63;6098049;19;20015;-71
2023/06/18 08:11:17;;;;;;;20.30;14.40;;;;;;;24.02;48.62;101456.75;6100353;19;20027;-71
2023/06/18 08:13:26;;;;;;;23.20;14.48;;;;;;;23.92;47.28;101460.38;6096247;19;20018;-72
2023/06/18 08:15:31;;;;;;;22.23;14.35;;;;;;;23.98;47.86;101449.09;6102300;19;20006;-72
2023/06/18 08:17:40;;;;;;;23.08;14.57;;;;;;;24.18;48.50;101455.41;6102110;19;19999;-72
2023/06/18 08:19:47;;;;;;;20.75;14.57;;;;;;;24.15;48.16;101453.00;6102611;19;20078;-72
2023/06/18 08:21:53;;;;;;;21.35;13.73;;;;;;;24.43;48.91;101449.53;6103004;19;20404;-71
2023/06/18 08:23:59;;;;;;;20.95;14.52;;;;;;;24.62;47.00;101446.09;6096764;19;20010;-72
2023/06/18 08:26:04;;;;;;;19.58;14.07;;;;;;;24.70;46.87;101440.88;6102366;19;20285;-73
2023/06/18 08:28:09;;;;;;;20.55;13.95;;;;;;;24.94;47.53;101443.16;6098267;19;20039;-70
2023/06/18 08:30:15;;;;;;;22.48;15.05;;;;;;;25.11;46.56;101446.09;6099565;19;20510;-71
2023/06/18 08:32:22;;;;;;;22.45;14.20;;;;;;;25.33;44.39;101437.78;6096811;19;20483;-71
2023/06/18 08:34:30;;;;;;;18.73;14.52;;;;;;;25.48;44.86;101434.63;6099504;19;20079;-69
2023/06/18 08:36:35;;;;;;;18.23;13.25;;;;;;;26.00;45.47;101438.59;6098452;19;20011;-69
2023/06/18 08:38:40;;;;;;;19.70;13.38;;;;;;;26.16;45.25;101445.19;6095602;19;20011;-70
2023/06/18 08:40:54;;;;;;;19.30;13.80;;;;;;;25.95;44.90;101442.75;6095116;19;20010;-70
2023/06/18 08:42:59;;;;;;;19.70;13.93;;;;;;;25.66;45.02;101438.28;6099166;19;20016;-70
2023/06/18 08:45:11;;;;;;;18.00;13.25;;;;;;;25.80;44.67;101436.94;6097478;19;20108;-70
2023/06/18 08:47:18;;;;;;;21.38;13.60;;;;;;;25.66;45.17;101429.34;6096368;19;20046;-68
2023/06/18 08:49:25;;;;;;;19.73;12.98;;;;;;;25.64;44.55;101426.78;6095799;19;20007;-70
2023/06/18 08:51:34;;;;;;;15.68;12.80;;;;;;;25.82;44.85;101424.19;6096045;19;20021;-70
2023/06/18 08:53:44;;;;;;;18.77;13.48;;;;;;;25.88;45.89;101422.78;6093437;19;20867;-69
2023/06/18 08:55:51;;;;;;;16.90;12.52;;;;;;;26.00;44.70;101425.13;6099438;19;20011;-69
2023/06/18 08:58:04;;;;;;;17.25;12.63;;;;;;;25.78;44.77;101418.25;6101087;19;20026;-70
2023/06/18 09:00:11;;;;;;;18.90;13.93;;;;;;;25.92;44.41;101414.25;6097770;19;20482;-69
2023/06/18 09:02:21;;;;;;;17.08;13.18;;;;;;;25.92;45.34;101408.03;6095147;19;20720;-73
2023/06/18 09:04:31;;;;;;;19.73;13.27;;;;;;;25.98;44.04;101415.50;6098223;19;20014;-72
2023/06/18 09:06:39;;;;;;;16.08;12.38;;;;;;;26.24;45.65;101418.34;6095608;19;20003;-72
2023/06/18 09:08:46;;;;;;;18.95;14.05;;;;;;;26.14;44.98;101421.09;6098647;19;20015;-73
2023/06/18 09:10:53;;;;;;;17.45;12.73;;;;;;;26.31;44.81;101426.69;6103860;19;20320;-73
2023/06/18 09:12:58;;;;;;;17.13;12.48;;;;;;;26.09;44.21;101431.47;6098787;19;20081;-74
2023/06/18 09:15:03;;;;;;;18.17;12.30;;;;;;;26.26;44.33;101428.00;6099787;19;20013;-74
2023/06/18 09:17:09;;;;;;;17.05;12.40;;;;;;;26.01;44.69;101434.06;6098185;19;20499;-73
2023/06/18 09:19:16;;;;;;;18.77;12.95;;;;;;;25.97;44.64;101429.97;6104774;19;20026;-75
2023/06/18 09:21:50;;;;;;;17.67;12.55;;;;;;;26.40;43.70;101423.09;6103552;19;20043;-74
2023/06/18 09:23:56;;;;;;;19.25;13.02;;;;;;;26.18;44.21;101425.19;6099128;19;20082;-73
2023/06/18 09:26:04;;;;;;;17.73;12.23;;;;;;;26.34;44.34;101426.41;6098494;19;20027;-74
2023/06/18 09:28:10;;;;;;;18.58;14.35;;;;;;;26.27;44.02;101426.97;6099406;19;20006;-74
2023/06/18 09:30:23;;;;;;;18.80;12.70;;;;;;;26.52;43.64;101423.78;6096044;19;20010;-74
2023/06/18 09:32:28;;;;;;;16.80;12.02;;;;;;;26.15;44.36;101422.81;6099631;19;20010;-73
2023/06/18 09:34:34;;;;;;;16.38;12.25;;;;;;;26.11;44.78;101421.41;6094526;19;21332;-74
2023/06/18 09:36:41;;;;;;;15.82;11.48;;;;;;;26.34;43.83;101423.69;6095779;19;20007;-74
2023/06/18 09:38:48;;;;;;;17.92;12.43;;;;;;;26.12;43.90;101423.13;6090898;19;20286;-74